sensor_id;sensor_type;location;lat;lon;timestamp;temperature;humidity
68701;DHT22;55682;51.114;5.882;2023-12-20T00:01:37;10.09;86.29
68701;DHT22;55682;51.114;5.882;2023-12-20T00:04:03;10.10;86.04
68701;DHT22;55682;51.114;5.882;2023-12-20T00:06:30;10.07;85.93
68701;DHT22;55682;51.114;5.882;2023-12-20T00:08:55;10.03;85.80
68701;DHT22;55682;51.114;5.882;2023-12-20T00:11:21;9.95;85.71
68701;DHT22;55682;51.114;5.882;2023-12-20T00:13:47;9.88;85.74
68701;DHT22;55682;51.114;5.882;2023-12-20T00:16:12;9.80;85.61
68701;DHT22;55682;51.114;5.882;2023-12-20T00:18:38;9.67;85.49
68701;DHT22;55682;51.114;5.882;2023-12-20T00:21:04;9.59;85.44
68701;DHT22;55682;51.114;5.882;2023-12-20T00:23:29;9.47;85.39
68701;DHT22;55682;51.114;5.882;2023-12-20T00:25:55;9.34;85.27
68701;DHT22;55682;51.114;5.882;2023-12-20T00:28:21;9.20;85.32
68701;DHT22;55682;51.114;5.882;2023-12-20T00:30:46;9.07;85.45
68701;DHT22;55682;51.114;5.882;2023-12-20T00:33:12;9.00;85.73
68701;DHT22;55682;51.114;5.882;2023-12-20T00:35:37;8.98;85.61
68701;DHT22;55682;51.114;5.882;2023-12-20T00:38:03;8.93;84.86
68701;DHT22;55682;51.114;5.882;2023-12-20T00:40:30;8.81;84.26
68701;DHT22;55682;51.114;5.882;2023-12-20T00:42:56;8.72;83.92
68701;DHT22;55682;51.114;5.882;2023-12-20T00:45:21;8.64;83.79
68701;DHT22;55682;51.114;5.882;2023-12-20T00:47:47;8.57;83.74
68701;DHT22;55682;51.114;5.882;2023-12-20T00:50:12;8.49;83.67
68701;DHT22;55682;51.114;5.882;2023-12-20T00:52:38;8.44;83.86
68701;DHT22;55682;51.114;5.882;2023-12-20T00:55:04;8.39;83.97
68701;DHT22;55682;51.114;5.882;2023-12-20T00:57:30;8.34;83.97
68701;DHT22;55682;51.114;5.882;2023-12-20T00:59:56;8.29;83.90
68701;DHT22;55682;51.114;5.882;2023-12-20T01:02:22;8.27;83.82
68701;DHT22;55682;51.114;5.882;2023-12-20T01:04:47;8.21;83.87
68701;DHT22;55682;51.114;5.882;2023-12-20T01:07:13;8.21;83.55
68701;DHT22;55682;51.114;5.882;2023-12-20T01:09:39;8.09;83.86
68701;DHT22;55682;51.114;5.882;2023-12-20T01:12:04;8.06;84.22
68701;DHT22;55682;51.114;5.882;2023-12-20T01:14:30;8.09;84.49
68701;DHT22;55682;51.114;5.882;2023-12-20T01:16:56;8.16;84.52
68701;DHT22;55682;51.114;5.882;2023-12-20T01:19:21;8.22;84.47
68701;DHT22;55682;51.114;5.882;2023-12-20T01:21:48;8.21;84.01
68701;DHT22;55682;51.114;5.882;2023-12-20T01:24:13;8.16;83.95
68701;DHT22;55682;51.114;5.882;2023-12-20T01:26:39;8.04;84.14
68701;DHT22;55682;51.114;5.882;2023-12-20T01:29:05;8.02;84.23
68701;DHT22;55682;51.114;5.882;2023-12-20T01:31:30;7.93;84.56
68701;DHT22;55682;51.114;5.882;2023-12-20T01:33:56;7.88;84.72
68701;DHT22;55682;51.114;5.882;2023-12-20T01:36:21;7.84;85.12
68701;DHT22;55682;51.114;5.882;2023-12-20T01:38:47;7.85;85.42
68701;DHT22;55682;51.114;5.882;2023-12-20T01:41:13;7.87;85.58
68701;DHT22;55682;51.114;5.882;2023-12-20T01:43:38;7.90;85.65
68701;DHT22;55682;51.114;5.882;2023-12-20T01:46:04;7.93;85.38
68701;DHT22;55682;51.114;5.882;2023-12-20T01:48:30;7.87;84.94
68701;DHT22;55682;51.114;5.882;2023-12-20T01:50:59;7.78;85.15
68701;DHT22;55682;51.114;5.882;2023-12-20T01:53:27;7.73;85.35
68701;DHT22;55682;51.114;5.882;2023-12-20T01:55:55;7.70;85.36
68701;DHT22;55682;51.114;5.882;2023-12-20T01:58:23;7.67;85.47
68701;DHT22;55682;51.114;5.882;2023-12-20T02:00:48;7.60;85.62
68701;DHT22;55682;51.114;5.882;2023-12-20T02:03:14;7.55;85.90
68701;DHT22;55682;51.114;5.882;2023-12-20T02:05:41;7.58;85.67
68701;DHT22;55682;51.114;5.882;2023-12-20T02:08:07;7.50;85.88
68701;DHT22;55682;51.114;5.882;2023-12-20T02:10:34;7.49;85.93
68701;DHT22;55682;51.114;5.882;2023-12-20T02:13:00;7.49;86.22
68701;DHT22;55682;51.114;5.882;2023-12-20T02:15:25;7.60;86.35
68701;DHT22;55682;51.114;5.882;2023-12-20T02:17:51;7.69;85.76
68701;DHT22;55682;51.114;5.882;2023-12-20T02:20:17;7.59;85.61
68701;DHT22;55682;51.114;5.882;2023-12-20T02:22:43;7.52;85.74
68701;DHT22;55682;51.114;5.882;2023-12-20T02:25:08;7.50;85.64
68701;DHT22;55682;51.114;5.882;2023-12-20T02:27:35;7.46;85.98
68701;DHT22;55682;51.114;5.882;2023-12-20T02:30:01;7.49;86.00
68701;DHT22;55682;51.114;5.882;2023-12-20T02:32:27;7.56;85.99
68701;DHT22;55682;51.114;5.882;2023-12-20T02:34:54;7.58;85.74
68701;DHT22;55682;51.114;5.882;2023-12-20T02:37:19;7.60;85.51
68701;DHT22;55682;51.114;5.882;2023-12-20T02:39:45;7.63;85.66
68701;DHT22;55682;51.114;5.882;2023-12-20T02:42:11;7.69;85.72
68701;DHT22;55682;51.114;5.882;2023-12-20T02:44:36;7.75;85.26
68701;DHT22;55682;51.114;5.882;2023-12-20T02:47:02;7.73;85.32
68701;DHT22;55682;51.114;5.882;2023-12-20T02:49:28;7.76;85.27
68701;DHT22;55682;51.114;5.882;2023-12-20T02:51:53;7.77;85.20
68701;DHT22;55682;51.114;5.882;2023-12-20T02:54:19;7.76;85.13
68701;DHT22;55682;51.114;5.882;2023-12-20T02:56:45;7.72;85.10
68701;DHT22;55682;51.114;5.882;2023-12-20T02:59:10;7.72;85.32
68701;DHT22;55682;51.114;5.882;2023-12-20T03:01:45;7.74;85.46
68701;DHT22;55682;51.114;5.882;2023-12-20T03:04:11;7.77;85.35
68701;DHT22;55682;51.114;5.882;2023-12-20T03:06:38;7.74;85.25
68701;DHT22;55682;51.114;5.882;2023-12-20T03:09:04;7.70;84.97
68701;DHT22;55682;51.114;5.882;2023-12-20T03:11:29;7.64;84.72
68701;DHT22;55682;51.114;5.882;2023-12-20T03:13:56;7.49;85.20
68701;DHT22;55682;51.114;5.882;2023-12-20T03:16:22;7.42;85.35
68701;DHT22;55682;51.114;5.882;2023-12-20T03:18:47;7.33;86.00
68701;DHT22;55682;51.114;5.882;2023-12-20T03:21:13;7.35;86.45
68701;DHT22;55682;51.114;5.882;2023-12-20T03:23:38;7.41;86.34
68701;DHT22;55682;51.114;5.882;2023-12-20T03:26:07;7.39;86.04
68701;DHT22;55682;51.114;5.882;2023-12-20T03:28:33;7.40;86.00
68701;DHT22;55682;51.114;5.882;2023-12-20T03:30:59;7.43;86.03
68701;DHT22;55682;51.114;5.882;2023-12-20T03:33:24;7.43;85.74
68701;DHT22;55682;51.114;5.882;2023-12-20T03:35:50;7.39;85.93
68701;DHT22;55682;51.114;5.882;2023-12-20T03:38:15;7.33;86.06
68701;DHT22;55682;51.114;5.882;2023-12-20T03:40:41;7.38;86.32
68701;DHT22;55682;51.114;5.882;2023-12-20T03:43:07;7.37;86.33
68701;DHT22;55682;51.114;5.882;2023-12-20T03:45:33;7.40;86.07
68701;DHT22;55682;51.114;5.882;2023-12-20T03:47:58;7.43;85.57
68701;DHT22;55682;51.114;5.882;2023-12-20T03:50:25;7.40;85.25
68701;DHT22;55682;51.114;5.882;2023-12-20T03:52:51;7.39;85.40
68701;DHT22;55682;51.114;5.882;2023-12-20T03:55:16;7.34;85.62
68701;DHT22;55682;51.114;5.882;2023-12-20T03:57:42;7.41;85.24
68701;DHT22;55682;51.114;5.882;2023-12-20T04:00:08;7.41;85.16
68701;DHT22;55682;51.114;5.882;2023-12-20T04:02:41;7.31;85.31
68701;DHT22;55682;51.114;5.882;2023-12-20T04:05:08;7.26;85.54
68701;DHT22;55682;51.114;5.882;2023-12-20T04:07:35;7.23;85.77
68701;DHT22;55682;51.114;5.882;2023-12-20T04:10:02;7.17;86.08
68701;DHT22;55682;51.114;5.882;2023-12-20T04:12:29;7.26;86.06
68701;DHT22;55682;51.114;5.882;2023-12-20T04:14:55;7.24;86.20
68701;DHT22;55682;51.114;5.882;2023-12-20T04:17:21;7.23;86.31
68701;DHT22;55682;51.114;5.882;2023-12-20T04:19:51;7.28;86.17
68701;DHT22;55682;51.114;5.882;2023-12-20T04:22:20;7.38;85.58
68701;DHT22;55682;51.114;5.882;2023-12-20T04:24:46;7.30;86.50
68701;DHT22;55682;51.114;5.882;2023-12-20T04:27:11;7.34;86.70
68701;DHT22;55682;51.114;5.882;2023-12-20T04:29:37;7.48;86.33
68701;DHT22;55682;51.114;5.882;2023-12-20T04:32:03;7.57;86.25
68701;DHT22;55682;51.114;5.882;2023-12-20T04:34:29;7.60;86.03
68701;DHT22;55682;51.114;5.882;2023-12-20T04:36:55;7.63;85.85
68701;DHT22;55682;51.114;5.882;2023-12-20T04:39:20;7.68;85.63
68701;DHT22;55682;51.114;5.882;2023-12-20T04:41:47;7.75;85.06
68701;DHT22;55682;51.114;5.882;2023-12-20T04:44:13;7.68;85.22
68701;DHT22;55682;51.114;5.882;2023-12-20T04:46:39;7.69;85.03
68701;DHT22;55682;51.114;5.882;2023-12-20T04:49:05;7.68;85.13
68701;DHT22;55682;51.114;5.882;2023-12-20T04:51:33;7.65;85.32
68701;DHT22;55682;51.114;5.882;2023-12-20T04:53:59;7.69;85.18
68701;DHT22;55682;51.114;5.882;2023-12-20T04:56:24;7.65;85.66
68701;DHT22;55682;51.114;5.882;2023-12-20T04:58:50;7.75;85.09
68701;DHT22;55682;51.114;5.882;2023-12-20T05:01:16;7.65;85.31
68701;DHT22;55682;51.114;5.882;2023-12-20T05:03:42;7.65;85.54
68701;DHT22;55682;51.114;5.882;2023-12-20T05:06:18;7.72;85.67
68701;DHT22;55682;51.114;5.882;2023-12-20T05:08:43;7.65;85.25
68701;DHT22;55682;51.114;5.882;2023-12-20T05:11:09;7.71;85.11
68701;DHT22;55682;51.114;5.882;2023-12-20T05:13:34;7.67;85.51
68701;DHT22;55682;51.114;5.882;2023-12-20T05:16:00;7.68;85.58
68701;DHT22;55682;51.114;5.882;2023-12-20T05:18:26;7.71;85.56
68701;DHT22;55682;51.114;5.882;2023-12-20T05:20:52;7.79;85.12
68701;DHT22;55682;51.114;5.882;2023-12-20T05:23:18;7.75;85.28
68701;DHT22;55682;51.114;5.882;2023-12-20T05:25:43;7.72;85.71
68701;DHT22;55682;51.114;5.882;2023-12-20T05:28:09;7.74;85.57
68701;DHT22;55682;51.114;5.882;2023-12-20T05:30:34;7.75;85.76
68701;DHT22;55682;51.114;5.882;2023-12-20T05:33:00;7.79;85.36
68701;DHT22;55682;51.114;5.882;2023-12-20T05:35:26;7.88;84.90
68701;DHT22;55682;51.114;5.882;2023-12-20T05:37:51;7.81;85.11
68701;DHT22;55682;51.114;5.882;2023-12-20T05:40:17;7.83;84.86
68701;DHT22;55682;51.114;5.882;2023-12-20T05:42:43;7.81;85.17
68701;DHT22;55682;51.114;5.882;2023-12-20T05:45:09;7.85;85.11
68701;DHT22;55682;51.114;5.882;2023-12-20T05:47:34;7.85;85.16
68701;DHT22;55682;51.114;5.882;2023-12-20T05:50:00;7.90;84.91
68701;DHT22;55682;51.114;5.882;2023-12-20T05:52:26;7.93;84.61
68701;DHT22;55682;51.114;5.882;2023-12-20T05:54:51;7.84;84.73
68701;DHT22;55682;51.114;5.882;2023-12-20T05:57:17;7.82;84.84
68701;DHT22;55682;51.114;5.882;2023-12-20T05:59:43;7.85;84.44
68701;DHT22;55682;51.114;5.882;2023-12-20T06:02:08;7.74;84.87
68701;DHT22;55682;51.114;5.882;2023-12-20T06:04:34;7.72;85.01
68701;DHT22;55682;51.114;5.882;2023-12-20T06:06:59;7.77;85.00
68701;DHT22;55682;51.114;5.882;2023-12-20T06:09:27;7.82;84.83
68701;DHT22;55682;51.114;5.882;2023-12-20T06:11:52;7.78;84.93
68701;DHT22;55682;51.114;5.882;2023-12-20T06:14:18;7.76;85.34
68701;DHT22;55682;51.114;5.882;2023-12-20T06:16:45;7.89;84.58
68701;DHT22;55682;51.114;5.882;2023-12-20T06:19:11;7.85;84.70
68701;DHT22;55682;51.114;5.882;2023-12-20T06:21:36;7.81;84.55
68701;DHT22;55682;51.114;5.882;2023-12-20T06:24:02;7.82;84.45
68701;DHT22;55682;51.114;5.882;2023-12-20T06:26:28;7.72;84.63
68701;DHT22;55682;51.114;5.882;2023-12-20T06:28:53;7.70;84.73
68701;DHT22;55682;51.114;5.882;2023-12-20T06:31:19;7.67;84.36
68701;DHT22;55682;51.114;5.882;2023-12-20T06:33:45;7.50;84.80
68701;DHT22;55682;51.114;5.882;2023-12-20T06:36:13;7.32;85.39
68701;DHT22;55682;51.114;5.882;2023-12-20T06:38:39;7.33;85.40
68701;DHT22;55682;51.114;5.882;2023-12-20T06:41:05;7.32;85.40
68701;DHT22;55682;51.114;5.882;2023-12-20T06:43:31;7.19;85.80
68701;DHT22;55682;51.114;5.882;2023-12-20T06:45:58;7.19;85.97
68701;DHT22;55682;51.114;5.882;2023-12-20T06:48:24;7.17;85.99
68701;DHT22;55682;51.114;5.882;2023-12-20T06:50:49;7.22;85.67
68701;DHT22;55682;51.114;5.882;2023-12-20T06:53:15;7.10;86.11
68701;DHT22;55682;51.114;5.882;2023-12-20T06:55:41;7.11;86.13
68701;DHT22;55682;51.114;5.882;2023-12-20T06:58:06;7.14;86.09
68701;DHT22;55682;51.114;5.882;2023-12-20T07:00:32;7.09;86.05
68701;DHT22;55682;51.114;5.882;2023-12-20T07:02:58;7.10;85.77
68701;DHT22;55682;51.114;5.882;2023-12-20T07:05:24;7.01;86.04
68701;DHT22;55682;51.114;5.882;2023-12-20T07:07:49;7.05;86.00
68701;DHT22;55682;51.114;5.882;2023-12-20T07:10:15;7.02;86.23
68701;DHT22;55682;51.114;5.882;2023-12-20T07:12:40;6.89;86.13
68701;DHT22;55682;51.114;5.882;2023-12-20T07:15:06;6.84;86.34
68701;DHT22;55682;51.114;5.882;2023-12-20T07:17:33;6.94;86.38
68701;DHT22;55682;51.114;5.882;2023-12-20T07:19:59;6.87;86.51
68701;DHT22;55682;51.114;5.882;2023-12-20T07:22:30;6.96;86.12
68701;DHT22;55682;51.114;5.882;2023-12-20T07:24:58;6.97;86.06
68701;DHT22;55682;51.114;5.882;2023-12-20T07:27:24;7.02;85.90
68701;DHT22;55682;51.114;5.882;2023-12-20T07:29:49;6.93;86.26
68701;DHT22;55682;51.114;5.882;2023-12-20T07:32:15;6.94;86.14
68701;DHT22;55682;51.114;5.882;2023-12-20T07:34:40;6.99;86.10
68701;DHT22;55682;51.114;5.882;2023-12-20T07:37:06;6.97;85.98
68701;DHT22;55682;51.114;5.882;2023-12-20T07:39:31;6.91;86.27
68701;DHT22;55682;51.114;5.882;2023-12-20T07:41:57;7.02;85.65
68701;DHT22;55682;51.114;5.882;2023-12-20T07:44:22;6.99;85.71
68701;DHT22;55682;51.114;5.882;2023-12-20T07:46:48;6.95;85.97
68701;DHT22;55682;51.114;5.882;2023-12-20T07:49:14;6.93;86.23
68701;DHT22;55682;51.114;5.882;2023-12-20T07:51:39;6.88;86.32
68701;DHT22;55682;51.114;5.882;2023-12-20T07:54:05;6.98;85.99
68701;DHT22;55682;51.114;5.882;2023-12-20T07:56:31;7.00;85.98
68701;DHT22;55682;51.114;5.882;2023-12-20T07:58:56;7.04;85.62
68701;DHT22;55682;51.114;5.882;2023-12-20T08:01:22;7.03;85.71
68701;DHT22;55682;51.114;5.882;2023-12-20T08:03:48;7.10;85.58
68701;DHT22;55682;51.114;5.882;2023-12-20T08:06:14;7.11;85.32
68701;DHT22;55682;51.114;5.882;2023-12-20T08:08:40;7.23;85.09
68701;DHT22;55682;51.114;5.882;2023-12-20T08:11:05;7.31;85.06
68701;DHT22;55682;51.114;5.882;2023-12-20T08:13:31;7.38;84.39
68701;DHT22;55682;51.114;5.882;2023-12-20T08:15:56;7.43;84.92
68701;DHT22;55682;51.114;5.882;2023-12-20T08:18:22;7.57;84.38
68701;DHT22;55682;51.114;5.882;2023-12-20T08:20:48;7.77;83.73
68701;DHT22;55682;51.114;5.882;2023-12-20T08:23:15;7.78;83.49
68701;DHT22;55682;51.114;5.882;2023-12-20T08:25:41;8.01;83.42
68701;DHT22;55682;51.114;5.882;2023-12-20T08:28:06;8.33;83.70
68701;DHT22;55682;51.114;5.882;2023-12-20T08:30:32;8.81;83.88
68701;DHT22;55682;51.114;5.882;2023-12-20T08:33:01;9.33;80.29
68701;DHT22;55682;51.114;5.882;2023-12-20T08:35:27;9.50;79.30
68701;DHT22;55682;51.114;5.882;2023-12-20T08:37:52;9.57;76.85
68701;DHT22;55682;51.114;5.882;2023-12-20T08:40:18;9.42;75.74
68701;DHT22;55682;51.114;5.882;2023-12-20T08:42:43;9.25;75.58
68701;DHT22;55682;51.114;5.882;2023-12-20T08:45:10;9.09;76.35
68701;DHT22;55682;51.114;5.882;2023-12-20T08:47:35;8.91;77.01
68701;DHT22;55682;51.114;5.882;2023-12-20T08:50:03;8.82;76.81
68701;DHT22;55682;51.114;5.882;2023-12-20T08:52:28;8.67;78.05
68701;DHT22;55682;51.114;5.882;2023-12-20T08:54:55;8.98;78.10
68701;DHT22;55682;51.114;5.882;2023-12-20T08:57:20;9.05;78.50
68701;DHT22;55682;51.114;5.882;2023-12-20T08:59:47;9.12;76.86
68701;DHT22;55682;51.114;5.882;2023-12-20T09:02:14;8.96;76.95
68701;DHT22;55682;51.114;5.882;2023-12-20T09:04:39;8.95;76.50
68701;DHT22;55682;51.114;5.882;2023-12-20T09:07:05;8.82;77.16
68701;DHT22;55682;51.114;5.882;2023-12-20T09:09:31;8.75;77.61
68701;DHT22;55682;51.114;5.882;2023-12-20T09:11:57;8.80;78.39
68701;DHT22;55682;51.114;5.882;2023-12-20T09:14:23;9.03;78.22
68701;DHT22;55682;51.114;5.882;2023-12-20T09:16:49;9.34;77.57
68701;DHT22;55682;51.114;5.882;2023-12-20T09:19:19;9.81;75.58
68701;DHT22;55682;51.114;5.882;2023-12-20T09:21:45;10.29;75.98
68701;DHT22;55682;51.114;5.882;2023-12-20T09:24:10;10.90;71.97
68701;DHT22;55682;51.114;5.882;2023-12-20T09:26:36;10.85;70.59
68701;DHT22;55682;51.114;5.882;2023-12-20T09:29:02;10.65;70.57
68701;DHT22;55682;51.114;5.882;2023-12-20T09:31:27;10.79;72.20
68701;DHT22;55682;51.114;5.882;2023-12-20T09:33:53;11.27;71.62
68701;DHT22;55682;51.114;5.882;2023-12-20T09:36:18;11.76;69.75
68701;DHT22;55682;51.114;5.882;2023-12-20T09:38:44;11.97;66.60
68701;DHT22;55682;51.114;5.882;2023-12-20T09:41:09;11.67;65.63
68701;DHT22;55682;51.114;5.882;2023-12-20T09:43:39;11.11;67.53
68701;DHT22;55682;51.114;5.882;2023-12-20T09:46:06;10.89;68.71
68701;DHT22;55682;51.114;5.882;2023-12-20T09:48:33;10.56;69.81
68701;DHT22;55682;51.114;5.882;2023-12-20T09:51:00;10.30;70.87
68701;DHT22;55682;51.114;5.882;2023-12-20T09:53:26;10.14;71.57
68701;DHT22;55682;51.114;5.882;2023-12-20T09:55:58;10.08;71.58
68701;DHT22;55682;51.114;5.882;2023-12-20T09:58:27;10.03;72.49
68701;DHT22;55682;51.114;5.882;2023-12-20T10:00:53;10.00;72.90
68701;DHT22;55682;51.114;5.882;2023-12-20T10:03:24;10.05;73.22
68701;DHT22;55682;51.114;5.882;2023-12-20T10:05:54;10.24;74.19
68701;DHT22;55682;51.114;5.882;2023-12-20T10:08:21;10.39;73.45
68701;DHT22;55682;51.114;5.882;2023-12-20T10:10:48;10.40;71.67
68701;DHT22;55682;51.114;5.882;2023-12-20T10:13:15;10.33;71.88
68701;DHT22;55682;51.114;5.882;2023-12-20T10:15:41;10.77;73.37
68701;DHT22;55682;51.114;5.882;2023-12-20T10:18:06;11.18;72.01
68701;DHT22;55682;51.114;5.882;2023-12-20T10:20:33;11.66;69.52
68701;DHT22;55682;51.114;5.882;2023-12-20T10:22:59;11.69;67.32
68701;DHT22;55682;51.114;5.882;2023-12-20T10:25:25;11.42;68.01
68701;DHT22;55682;51.114;5.882;2023-12-20T10:28:10;11.23;68.46
68701;DHT22;55682;51.114;5.882;2023-12-20T10:30:36;11.00;68.98
68701;DHT22;55682;51.114;5.882;2023-12-20T10:33:02;10.81;70.03
68701;DHT22;55682;51.114;5.882;2023-12-20T10:35:27;10.67;70.41
68701;DHT22;55682;51.114;5.882;2023-12-20T10:37:56;10.55;71.23
68701;DHT22;55682;51.114;5.882;2023-12-20T10:40:22;10.48;71.72
68701;DHT22;55682;51.114;5.882;2023-12-20T10:42:49;10.54;71.30
68701;DHT22;55682;51.114;5.882;2023-12-20T10:45:16;10.50;71.65
68701;DHT22;55682;51.114;5.882;2023-12-20T10:47:46;10.56;71.94
68701;DHT22;55682;51.114;5.882;2023-12-20T10:50:12;10.71;71.39
68701;DHT22;55682;51.114;5.882;2023-12-20T10:52:40;10.80;71.12
68701;DHT22;55682;51.114;5.882;2023-12-20T10:55:07;10.94;70.61
68701;DHT22;55682;51.114;5.882;2023-12-20T10:57:32;10.86;70.93
68701;DHT22;55682;51.114;5.882;2023-12-20T11:00:01;10.74;71.01
68701;DHT22;55682;51.114;5.882;2023-12-20T11:02:39;10.65;70.90
68701;DHT22;55682;51.114;5.882;2023-12-20T11:07:48;10.48;71.61
68701;DHT22;55682;51.114;5.882;2023-12-20T11:10:25;10.27;71.81
68701;DHT22;55682;51.114;5.882;2023-12-20T11:13:06;10.29;72.22
68701;DHT22;55682;51.114;5.882;2023-12-20T11:15:36;10.30;72.64
68701;DHT22;55682;51.114;5.882;2023-12-20T11:18:04;10.19;72.79
68701;DHT22;55682;51.114;5.882;2023-12-20T11:20:39;10.08;73.31
68701;DHT22;55682;51.114;5.882;2023-12-20T11:23:06;10.13;73.38
68701;DHT22;55682;51.114;5.882;2023-12-20T11:25:51;10.18;73.39
68701;DHT22;55682;51.114;5.882;2023-12-20T11:28:22;10.11;73.38
68701;DHT22;55682;51.114;5.882;2023-12-20T11:30:51;10.10;73.22
68701;DHT22;55682;51.114;5.882;2023-12-20T11:33:22;10.00;73.63
68701;DHT22;55682;51.114;5.882;2023-12-20T11:35:48;9.95;73.89
68701;DHT22;55682;51.114;5.882;2023-12-20T11:38:14;9.94;74.23
68701;DHT22;55682;51.114;5.882;2023-12-20T11:40:42;10.03;73.74
68701;DHT22;55682;51.114;5.882;2023-12-20T11:43:08;9.93;74.40
68701;DHT22;55682;51.114;5.882;2023-12-20T11:45:34;9.88;74.45
68701;DHT22;55682;51.114;5.882;2023-12-20T11:48:02;9.90;74.64
68701;DHT22;55682;51.114;5.882;2023-12-20T11:50:28;9.95;74.77
68701;DHT22;55682;51.114;5.882;2023-12-20T11:52:56;9.94;74.44
68701;DHT22;55682;51.114;5.882;2023-12-20T11:55:22;9.86;75.08
68701;DHT22;55682;51.114;5.882;2023-12-20T11:57:50;9.86;75.20
68701;DHT22;55682;51.114;5.882;2023-12-20T12:00:16;9.88;75.43
68701;DHT22;55682;51.114;5.882;2023-12-20T12:02:43;9.85;74.99
68701;DHT22;55682;51.114;5.882;2023-12-20T12:05:09;9.84;75.40
68701;DHT22;55682;51.114;5.882;2023-12-20T12:07:35;9.89;75.05
68701;DHT22;55682;51.114;5.882;2023-12-20T12:10:01;9.83;75.84
68701;DHT22;55682;51.114;5.882;2023-12-20T12:12:27;9.83;75.99
68701;DHT22;55682;51.114;5.882;2023-12-20T12:14:54;9.95;75.44
68701;DHT22;55682;51.114;5.882;2023-12-20T12:17:19;9.89;75.80
68701;DHT22;55682;51.114;5.882;2023-12-20T12:19:45;9.86;75.99
68701;DHT22;55682;51.114;5.882;2023-12-20T12:22:14;9.84;76.17
68701;DHT22;55682;51.114;5.882;2023-12-20T12:24:46;9.82;76.74
68701;DHT22;55682;51.114;5.882;2023-12-20T12:27:13;9.84;77.08
68701;DHT22;55682;51.114;5.882;2023-12-20T12:29:39;9.82;77.36
68701;DHT22;55682;51.114;5.882;2023-12-20T12:32:09;9.81;77.24
68701;DHT22;55682;51.114;5.882;2023-12-20T12:34:36;9.82;77.63
68701;DHT22;55682;51.114;5.882;2023-12-20T12:37:03;9.85;77.56
68701;DHT22;55682;51.114;5.882;2023-12-20T12:39:30;9.84;77.60
68701;DHT22;55682;51.114;5.882;2023-12-20T12:41:56;9.76;77.96
68701;DHT22;55682;51.114;5.882;2023-12-20T12:44:25;9.79;77.45
68701;DHT22;55682;51.114;5.882;2023-12-20T12:46:51;9.68;78.35
68701;DHT22;55682;51.114;5.882;2023-12-20T12:49:19;9.74;78.62
68701;DHT22;55682;51.114;5.882;2023-12-20T12:51:45;9.76;78.72
68701;DHT22;55682;51.114;5.882;2023-12-20T12:54:12;9.63;79.41
68701;DHT22;55682;51.114;5.882;2023-12-20T12:56:39;9.67;78.95
68701;DHT22;55682;51.114;5.882;2023-12-20T12:59:05;9.61;79.53
68701;DHT22;55682;51.114;5.882;2023-12-20T13:01:31;9.61;79.72
68701;DHT22;55682;51.114;5.882;2023-12-20T13:03:57;9.55;80.24
68701;DHT22;55682;51.114;5.882;2023-12-20T13:06:23;9.56;80.47
68701;DHT22;55682;51.114;5.882;2023-12-20T13:08:49;9.68;80.22
68701;DHT22;55682;51.114;5.882;2023-12-20T13:11:15;9.67;80.35
68701;DHT22;55682;51.114;5.882;2023-12-20T13:13:41;9.67;80.56
68701;DHT22;55682;51.114;5.882;2023-12-20T13:16:06;9.66;80.58
68701;DHT22;55682;51.114;5.882;2023-12-20T13:18:32;9.68;80.96
68701;DHT22;55682;51.114;5.882;2023-12-20T13:20:57;9.72;80.71
68701;DHT22;55682;51.114;5.882;2023-12-20T13:23:23;9.67;81.47
68701;DHT22;55682;51.114;5.882;2023-12-20T13:25:49;9.71;81.44
68701;DHT22;55682;51.114;5.882;2023-12-20T13:28:14;9.75;81.62
68701;DHT22;55682;51.114;5.882;2023-12-20T13:30:40;9.77;80.88
68701;DHT22;55682;51.114;5.882;2023-12-20T13:33:06;9.78;81.04
68701;DHT22;55682;51.114;5.882;2023-12-20T13:35:32;9.83;80.82
68701;DHT22;55682;51.114;5.882;2023-12-20T13:38:00;9.76;81.27
68701;DHT22;55682;51.114;5.882;2023-12-20T13:40:26;9.88;81.24
68701;DHT22;55682;51.114;5.882;2023-12-20T13:42:52;9.94;80.88
68701;DHT22;55682;51.114;5.882;2023-12-20T13:45:17;9.98;80.59
68701;DHT22;55682;51.114;5.882;2023-12-20T13:47:43;9.92;80.37
68701;DHT22;55682;51.114;5.882;2023-12-20T13:50:09;9.94;80.42
68701;DHT22;55682;51.114;5.882;2023-12-20T13:52:35;9.86;80.70
68701;DHT22;55682;51.114;5.882;2023-12-20T13:55:01;9.89;80.59
68701;DHT22;55682;51.114;5.882;2023-12-20T13:57:27;9.90;80.64
68701;DHT22;55682;51.114;5.882;2023-12-20T13:59:55;9.97;80.52
68701;DHT22;55682;51.114;5.882;2023-12-20T14:02:23;9.96;80.45
68701;DHT22;55682;51.114;5.882;2023-12-20T14:04:48;9.93;80.94
68701;DHT22;55682;51.114;5.882;2023-12-20T14:07:14;9.98;80.69
68701;DHT22;55682;51.114;5.882;2023-12-20T14:09:41;9.90;81.14
68701;DHT22;55682;51.114;5.882;2023-12-20T14:12:14;9.90;81.05
68701;DHT22;55682;51.114;5.882;2023-12-20T14:14:39;9.88;81.13
68701;DHT22;55682;51.114;5.882;2023-12-20T14:17:05;9.83;81.54
68701;DHT22;55682;51.114;5.882;2023-12-20T14:19:34;9.81;81.81
68701;DHT22;55682;51.114;5.882;2023-12-20T14:22:00;9.83;81.55
68701;DHT22;55682;51.114;5.882;2023-12-20T14:24:29;9.82;81.75
68701;DHT22;55682;51.114;5.882;2023-12-20T14:26:55;9.86;81.33
68701;DHT22;55682;51.114;5.882;2023-12-20T14:29:21;9.71;81.63
68701;DHT22;55682;51.114;5.882;2023-12-20T14:31:46;9.77;81.69
68701;DHT22;55682;51.114;5.882;2023-12-20T14:34:12;9.77;81.39
68701;DHT22;55682;51.114;5.882;2023-12-20T14:36:37;9.82;81.39
68701;DHT22;55682;51.114;5.882;2023-12-20T14:39:04;9.79;81.24
68701;DHT22;55682;51.114;5.882;2023-12-20T14:41:30;9.80;81.33
68701;DHT22;55682;51.114;5.882;2023-12-20T14:43:56;9.78;81.62
68701;DHT22;55682;51.114;5.882;2023-12-20T14:46:22;9.83;81.33
68701;DHT22;55682;51.114;5.882;2023-12-20T14:48:47;9.88;80.55
68701;DHT22;55682;51.114;5.882;2023-12-20T14:51:14;9.86;80.58
68701;DHT22;55682;51.114;5.882;2023-12-20T14:53:40;9.81;80.50
68701;DHT22;55682;51.114;5.882;2023-12-20T14:56:07;9.79;80.65
68701;DHT22;55682;51.114;5.882;2023-12-20T14:58:33;9.74;80.93
68701;DHT22;55682;51.114;5.882;2023-12-20T15:01:00;9.72;81.04
68701;DHT22;55682;51.114;5.882;2023-12-20T15:03:25;9.72;81.01
68701;DHT22;55682;51.114;5.882;2023-12-20T15:05:51;9.65;81.34
68701;DHT22;55682;51.114;5.882;2023-12-20T15:08:17;9.75;80.94
68701;DHT22;55682;51.114;5.882;2023-12-20T15:10:42;9.67;81.27
68701;DHT22;55682;51.114;5.882;2023-12-20T15:13:08;9.74;80.98
68701;DHT22;55682;51.114;5.882;2023-12-20T15:15:33;9.72;80.81
68701;DHT22;55682;51.114;5.882;2023-12-20T15:17:59;9.71;81.10
68701;DHT22;55682;51.114;5.882;2023-12-20T15:20:26;9.69;80.98
68701;DHT22;55682;51.114;5.882;2023-12-20T15:22:52;9.69;80.98
68701;DHT22;55682;51.114;5.882;2023-12-20T15:25:19;9.66;81.35
68701;DHT22;55682;51.114;5.882;2023-12-20T15:27:50;9.71;80.95
68701;DHT22;55682;51.114;5.882;2023-12-20T15:30:22;9.75;80.64
68701;DHT22;55682;51.114;5.882;2023-12-20T15:32:50;9.62;81.33
68701;DHT22;55682;51.114;5.882;2023-12-20T15:35:15;9.64;81.22
68701;DHT22;55682;51.114;5.882;2023-12-20T15:37:41;9.59;81.47
68701;DHT22;55682;51.114;5.882;2023-12-20T15:40:08;9.57;81.39
68701;DHT22;55682;51.114;5.882;2023-12-20T15:42:38;9.56;81.37